Time;durP1;ratioP1;P1;durP2;ratioP2;P2;SDS_P1;SDS_P2;PMS_P1;PMS_P2;Temp;Humidity;BMP_temperature;BMP_pressure;BME280_temperature;BME280_humidity;BME280_pressure;Samples;Min_cycle;Max_cycle;Signal;HPM_P1;HPM_P2
2021/03/03 00:00:05;;;;;;;8.85;5.20;;;11.70;54.50;11.40;100896.00;;;;340168;28;84676;-86
2021/03/03 00:00:17;;;;;;;9.25;5.32;;;11.70;54.60;11.40;100905.00;;;;342348;28;91729;-86
2021/03/03 00:00:29;;;;;;;9.30;4.95;;;11.70;54.70;11.40;100900.00;;;;340210;28;82408;-87
2021/03/03 00:00:40;;;;;;;9.38;4.90;;;11.60;54.70;11.30;100903.00;;;;341159;28;92680;-86
2021/03/03 00:00:52;;;;;;;8.07;4.82;;;11.60;54.80;11.40;100906.00;;;;340128;28;84669;-87
2021/03/03 00:01:04;;;;;;;7.57;4.65;;;11.60;54.90;11.30;100908.00;;;;342499;28;91230;-87
2021/03/03 00:01:16;;;;;;;8.73;5.22;;;11.50;54.70;11.30;100898.00;;;;341295;28;84584;-87
2021/03/03 00:01:27;;;;;;;7.53;5.03;;;11.60;54.80;11.30;100905.00;;;;342508;28;91627;-87
2021/03/03 00:01:39;;;;;;;8.65;5.15;;;11.50;54.80;11.30;100902.00;;;;344127;28;84939;-87
2021/03/03 00:01:50;;;;;;;9.35;4.95;;;11.50;54.80;11.30;100898.00;;;;343605;28;91889;-88
2021/03/03 00:02:02;;;;;;;12.52;5.55;;;11.50;54.70;11.20;100900.00;;;;344087;28;84112;-88
2021/03/03 00:02:13;;;;;;;15.00;5.45;;;11.50;54.90;11.30;100899.00;;;;341053;28;91909;-88
2021/03/03 00:02:25;;;;;;;13.05;5.25;;;11.50;54.80;11.30;100904.00;;;;343766;28;84793;-87
2021/03/03 00:02:36;;;;;;;6.55;4.78;;;11.50;54.70;11.50;100904.00;;;;346501;28;91276;-87
2021/03/03 00:02:48;;;;;;;7.00;5.05;;;11.50;54.50;11.40;100908.00;;;;343335;28;83344;-87
2021/03/03 00:03:00;;;;;;;7.72;5.28;;;11.50;54.80;11.50;100911.00;;;;345081;28;92090;-87
2021/03/03 00:03:12;;;;;;;8.43;5.55;;;11.50;54.40;11.50;100897.00;;;;344155;28;84682;-87
2021/03/03 00:03:23;;;;;;;8.88;5.38;;;11.50;54.10;11.50;100907.00;;;;343758;28;92206;-87
2021/03/03 00:03:34;;;;;;;8.25;4.70;;;11.50;54.10;11.50;100899.00;;;;342725;28;84723;-88
2021/03/03 00:03:46;;;;;;;10.80;4.85;;;11.50;54.40;11.60;100898.00;;;;343921;28;89518;-87
2021/03/03 00:03:57;;;;;;;10.32;5.25;;;11.50;54.50;11.50;100900.00;;;;342685;28;85087;-89
2021/03/03 00:04:09;;;;;;;11.18;5.88;;;11.50;54.60;11.60;100905.00;;;;340768;28;92618;-87
2021/03/03 00:04:20;;;;;;;9.38;6.15;;;11.50;54.40;11.60;100902.00;;;;341294;28;84764;-87
2021/03/03 00:04:31;;;;;;;8.43;5.72;;;11.50;54.40;11.60;100901.00;;;;341208;28;91419;-87
2021/03/03 00:04:43;;;;;;;8.20;5.32;;;11.50;54.60;11.60;100893.00;;;;341554;28;84225;-87
2021/03/03 00:04:55;;;;;;;8.05;5.30;;;11.50;54.90;11.60;100896.00;;;;343769;28;90994;-89
2021/03/03 00:05:07;;;;;;;8.25;5.65;;;11.50;54.60;11.70;100900.00;;;;342728;28;84577;-87
2021/03/03 00:05:18;;;;;;;7.88;5.75;;;11.50;54.60;11.70;100901.00;;;;343347;28;91636;-87
2021/03/03 00:05:30;;;;;;;7.40;5.22;;;11.50;54.70;11.60;100901.00;;;;342831;28;85279;-87
2021/03/03 00:05:41;;;;;;;7.72;4.90;;;11.50;55.00;11.50;100909.00;;;;343877;28;89354;-87
2021/03/03 00:05:53;;;;;;;7.30;4.95;;;11.50;55.10;11.50;100900.00;;;;343004;28;84748;-88
2021/03/03 00:06:04;;;;;;;7.47;5.25;;;11.50;55.00;11.60;100900.00;;;;339743;28;91923;-87
2021/03/03 00:06:15;;;;;;;7.45;5.35;;;11.50;54.80;11.60;100901.00;;;;341569;28;83445;-87
2021/03/03 00:06:27;;;;;;;7.55;5.28;;;11.50;54.90;11.60;100900.00;;;;342345;28;91685;-87
2021/03/03 00:06:38;;;;;;;8.43;5.22;;;11.50;54.70;11.70;100898.00;;;;341575;28;83341;-87
2021/03/03 00:06:49;;;;;;;8.38;4.86;;;11.50;54.40;11.70;100908.00;;;;340930;28;91072;-87
2021/03/03 00:07:01;;;;;;;9.02;4.85;;;11.50;54.40;11.60;100899.00;;;;342709;28;85295;-86
2021/03/03 00:07:14;;;;;;;8.93;5.32;;;11.50;54.70;11.70;100897.00;;;;343874;28;91731;-87
2021/03/03 00:07:25;;;;;;;8.07;5.35;;;11.50;54.70;11.60;100904.00;;;;342988;28;83614;-87
2021/03/03 00:07:37;;;;;;;8.35;5.47;;;11.50;54.60;11.60;100895.00;;;;343718;28;91799;-87
2021/03/03 00:07:48;;;;;;;8.20;5.32;;;11.50;54.80;11.60;100895.00;;;;344046;28;83979;-87
2021/03/03 00:07:59;;;;;;;8.23;5.68;;;11.50;54.80;11.60;100895.00;;;;343705;28;91450;-87
2021/03/03 00:08:11;;;;;;;8.27;5.95;;;11.50;54.80;11.60;100890.00;;;;345428;28;83657;-87
2021/03/03 00:08:22;;;;;;;8.73;5.82;;;11.50;54.80;11.50;100889.00;;;;340748;28;89705;-88
2021/03/03 00:08:33;;;;;;;8.52;5.50;;;11.50;54.80;11.70;100898.00;;;;342800;28;84769;-87
2021/03/03 00:08:45;;;;;;;8.00;4.70;;;11.50;54.70;11.80;100896.00;;;;341108;28;92094;-87
2021/03/03 00:08:58;;;;;;;9.63;4.88;;;11.50;54.60;11.90;100893.00;;;;342603;28;84692;-87
2021/03/03 00:09:09;;;;;;;8.55;5.07;;;11.50;54.70;11.80;100892.00;;;;342415;28;91940;-87
2021/03/03 00:09:21;;;;;;;8.20;5.47;;;11.50;54.90;11.70;100905.00;;;;343273;28;84669;-88
2021/03/03 00:09:32;;;;;;;7.63;5.45;;;11.50;54.80;11.80;100901.00;;;;339809;28;92008;-87
2021/03/03 00:09:44;;;;;;;8.70;5.57;;;11.50;54.60;11.80;100897.00;;;;344142;28;84882;-87
2021/03/03 00:09:55;;;;;;;7.92;5.36;;;11.50;54.50;11.70;100897.00;;;;342229;28;93066;-87
2021/03/03 00:10:07;;;;;;;9.65;5.70;;;11.60;54.50;11.80;100900.00;;;;344176;28;84334;-87
2021/03/03 00:10:19;;;;;;;10.57;6.10;;;11.50;54.40;11.80;100901.00;;;;342393;28;92420;-88
2021/03/03 00:10:30;;;;;;;9.00;5.57;;;11.60;54.30;11.80;100899.00;;;;341488;28;84901;-87
2021/03/03 00:10:42;;;;;;;6.40;4.88;;;11.60;54.30;11.80;100899.00;;;;345251;28;92226;-88
2021/03/03 00:10:54;;;;;;;6.22;4.35;;;11.60;54.40;11.70;100900.00;;;;345534;28;85290;-87
2021/03/03 00:11:05;;;;;;;7.28;4.80;;;11.60;54.70;11.70;100901.00;;;;342486;28;89495;-87
2021/03/03 00:11:16;;;;;;;7.60;4.80;;;11.60;54.90;11.80;100906.00;;;;342534;28;84525;-87
2021/03/03 00:11:28;;;;;;;7.45;4.82;;;11.60;54.70;11.80;100905.00;;;;343240;28;92643;-87
2021/03/03 00:11:39;;;;;;;7.28;4.93;;;11.60;54.60;11.90;100910.00;;;;341308;28;84756;-87
2021/03/03 00:11:50;;;;;;;8.43;5.43;;;11.60;54.50;11.90;100908.00;;;;343117;28;92613;-86
2021/03/03 00:12:02;;;;;;;9.35;5.63;;;11.60;54.50;12.00;100915.00;;;;344210;28;83461;-89
2021/03/03 00:12:13;;;;;;;8.55;4.97;;;11.60;54.70;12.00;100912.00;;;;343860;28;91825;-87
2021/03/03 00:12:25;;;;;;;7.65;5.10;;;11.70;54.60;11.90;100909.00;;;;342773;28;83374;-87
2021/03/03 00:12:36;;;;;;;7.47;5.30;;;11.70;54.60;11.90;100907.00;;;;342229;28;90821;-88
2021/03/03 00:12:47;;;;;;;7.70;5.65;;;11.70;54.50;11.90;100919.00;;;;342636;28;84406;-87
2021/03/03 00:12:59;;;;;;;7.18;4.95;;;11.70;54.60;11.80;100919.00;;;;342361;28;91857;-87
2021/03/03 00:13:10;;;;;;;6.78;4.78;;;11.70;54.80;11.80;100910.00;;;;342886;28;83487;-87
2021/03/03 00:13:21;;;;;;;7.72;5.04;;;11.70;54.50;11.80;100906.00;;;;341098;28;92811;-87
2021/03/03 00:13:33;;;;;;;10.05;5.65;;;11.70;54.40;11.90;100911.00;;;;342859;28;84002;-88
2021/03/03 00:13:44;;;;;;;9.05;5.28;;;11.70;54.30;11.90;100909.00;;;;342305;28;90550;-87
2021/03/03 00:13:56;;;;;;;9.13;5.15;;;11.70;54.50;11.80;100911.00;;;;344282;28;84741;-87
2021/03/03 00:14:07;;;;;;;8.00;5.15;;;11.70;55.20;11.90;100907.00;;;;343770;28;91896;-88
2021/03/03 00:14:18;;;;;;;9.30;5.10;;;11.70;54.60;11.90;100905.00;;;;343414;28;84487;-87
2021/03/03 00:14:30;;;;;;;7.93;4.60;;;11.70;54.50;12.00;100904.00;;;;341152;28;91126;-87
2021/03/03 00:14:42;;;;;;;7.50;4.60;;;11.70;54.60;12.00;100900.00;;;;342834;28;85144;-87
2021/03/03 00:14:53;;;;;;;8.45;4.78;;;11.70;54.70;11.90;100902.00;;;;343801;28;89088;-87
2021/03/03 00:15:05;;;;;;;9.07;4.72;;;11.70;54.90;11.90;100903.00;;;;342753;28;85468;-87
2021/03/03 00:15:17;;;;;;;8.85;4.90;;;11.70;54.70;11.90;100899.00;;;;344873;28;91154;-87
2021/03/03 00:15:28;;;;;;;6.82;4.55;;;11.70;54.50;11.90;100903.00;;;;341416;28;84444;-87
2021/03/03 00:15:40;;;;;;;7.38;5.25;;;11.70;54.50;11.80;100901.00;;;;339619;28;93672;-87
2021/03/03 00:15:51;;;;;;;8.85;5.38;;;11.70;54.60;11.80;100898.00;;;;342645;28;84640;-88
2021/03/03 00:16:03;;;;;;;9.30;5.40;;;11.70;54.70;12.00;100903.00;;;;341002;28;91133;-87
2021/03/03 00:16:15;;;;;;;9.55;5.53;;;11.80;54.70;12.00;100904.00;;;;342741;28;85399;-87
2021/03/03 00:16:27;;;;;;;9.63;5.50;;;11.70;54.60;12.00;100901.00;;;;342456;28;91688;-87
2021/03/03 00:16:38;;;;;;;9.52;5.40;;;11.70;54.50;12.00;100908.00;;;;344071;28;83700;-87
2021/03/03 00:16:50;;;;;;;8.93;5.20;;;11.80;54.50;12.00;100897.00;;;;342524;28;92388;-87
2021/03/03 00:17:02;;;;;;;8.18;5.08;;;11.80;54.50;11.80;100903.00;;;;342699;28;84606;-87
2021/03/03 00:17:14;;;;;;;8.70;5.15;;;11.80;54.60;11.80;100906.00;;;;342454;28;92012;-86
2021/03/03 00:17:25;;;;;;;7.97;4.97;;;11.80;54.90;11.80;100905.00;;;;343766;28;84630;-87
2021/03/03 00:17:37;;;;;;;9.05;5.35;;;11.80;55.00;11.80;100902.00;;;;346484;28;90003;-87
2021/03/03 00:17:49;;;;;;;9.10;5.72;;;11.80;55.00;11.80;100912.00;;;;343350;28;84687;-87
2021/03/03 00:18:00;;;;;;;7.85;5.35;;;11.80;54.90;11.70;100909.00;;;;343797;28;91749;-87
2021/03/03 00:18:12;;;;;;;7.57;5.07;;;11.80;54.90;11.70;100902.00;;;;342963;28;83463;-87
2021/03/03 00:18:23;;;;;;;7.72;4.60;;;11.70;54.90;11.70;100905.00;;;;342685;28;89576;-87
2021/03/03 00:18:35;;;;;;;8.15;4.75;;;11.80;54.90;11.70;100903.00;;;;341733;28;83639;-87
2021/03/03 00:18:46;;;;;;;14.10;6.15;;;11.70;54.90;11.80;100903.00;;;;339934;28;92056;-87
2021/03/03 00:18:57;;;;;;;13.40;6.30;;;11.70;55.30;11.80;100905.00;;;;344379;28;83874;-89
2021/03/03 00:19:09;;;;;;;10.50;5.82;;;11.70;54.70;11.80;100906.00;;;;341361;28;91999;-87
2021/03/03 00:19:20;;;;;;;7.43;5.00;;;11.70;54.70;11.70;100909.00;;;;344451;28;84581;-88
2021/03/03 00:19:32;;;;;;;7.53;4.78;;;11.70;54.70;11.70;100902.00;;;;345358;28;93319;-88
2021/03/03 00:19:43;;;;;;;7.68;4.72;;;11.80;54.90;11.70;100909.00;;;;343044;28;82478;-88
2021/03/03 00:19:54;;;;;;;7.20;4.95;;;11.70;54.80;11.80;100909.00;;;;343913;28;91956;-87
2021/03/03 00:20:07;;;;;;;14.13;5.57;;;11.70;54.70;11.80;100914.00;;;;340387;28;84115;-87
2021/03/03 00:20:18;;;;;;;15.25;5.38;;;11.70;54.60;11.90;100905.00;;;;345002;28;91849;-87
2021/03/03 00:20:30;;;;;;;9.45;5.13;;;11.80;54.50;11.90;100907.00;;;;342673;28;84537;-87
2021/03/03 00:20:41;;;;;;;8.40;4.85;;;11.80;54.40;11.90;100907.00;;;;340073;28;92220;-88
2021/03/03 00:20:53;;;;;;;8.57;5.47;;;11.70;54.40;11.90;100912.00;;;;342630;28;84533;-88
2021/03/03 00:21:04;;;;;;;7.85;5.95;;;11.80;54.40;12.00;100909.00;;;;342695;28;91808;-87
2021/03/03 00:21:16;;;;;;;6.72;5.63;;;11.80;54.50;12.00;100908.00;;;;340403;28;84489;-87
2021/03/03 00:21:27;;;;;;;7.70;5.70;;;11.80;54.50;12.00;100913.00;;;;343958;28;93432;-87
2021/03/03 00:21:39;;;;;;;8.23;5.80;;;11.80;54.60;12.10;100908.00;;;;341757;28;82526;-88
2021/03/03 00:21:50;;;;;;;8.00;5.72;;;11.80;54.40;12.10;100907.00;;;;342754;28;92365;-87
2021/03/03 00:22:02;;;;;;;8.02;5.70;;;11.80;54.50;12.10;100907.00;;;;343030;28;83512;-87
2021/03/03 00:22:13;;;;;;;7.80;5.43;;;11.90;54.50;12.10;100904.00;;;;341297;28;91876;-88
2021/03/03 00:22:24;;;;;;;7.43;5.03;;;11.90;54.60;12.10;100905.00;;;;342986;28;83441;-87
2021/03/03 00:22:36;;;;;;;6.60;4.47;;;11.90;54.60;12.10;100909.00;;;;342761;28;91779;-86
2021/03/03 00:22:47;;;;;;;7.35;4.95;;;11.90;54.50;12.20;100911.00;;;;343088;28;84784;-87
2021/03/03 00:22:58;;;;;;;9.07;5.35;;;11.90;54.40;12.30;100904.00;;;;342464;28;91729;-88
2021/03/03 00:23:10;;;;;;;9.32;5.95;;;11.90;54.40;12.30;100907.00;;;;342957;28;84978;-87
2021/03/03 00:23:21;;;;;;;8.38;5.43;;;11.90;54.50;12.30;100908.00;;;;342190;28;92283;-87
2021/03/03 00:23:32;;;;;;;8.30;5.35;;;11.90;54.50;12.20;100897.00;;;;341116;28;82568;-87
2021/03/03 00:23:44;;;;;;;9.57;5.47;;;11.90;54.50;12.20;100906.00;;;;342733;28;89304;-87
2021/03/03 00:23:55;;;;;;;10.80;5.60;;;11.90;54.50;12.20;100904.00;;;;345505;28;83870;-87
2021/03/03 00:24:07;;;;;;;9.85;5.60;;;12.00;54.30;12.20;100909.00;;;;342706;28;91630;-87
2021/03/03 00:24:18;;;;;;;9.18;5.20;;;12.00;54.30;12.10;100910.00;;;;344423;28;83301;-87
2021/03/03 00:24:30;;;;;;;7.53;4.85;;;12.00;54.50;12.00;100910.00;;;;344050;28;91679;-87
2021/03/03 00:24:41;;;;;;;7.68;4.88;;;12.00;54.70;11.90;100912.00;;;;341728;28;84799;-86
2021/03/03 00:24:53;;;;;;;8.10;5.03;;;12.00;54.80;11.90;100911.00;;;;344010;28;89837;-87
2021/03/03 00:25:05;;;;;;;9.05;5.40;;;11.90;54.90;11.90;100913.00;;;;342859;28;84804;-88
2021/03/03 00:25:16;;;;;;;9.13;5.43;;;11.90;54.90;12.00;100915.00;;;;342539;28;91224;-88
2021/03/03 00:25:28;;;;;;;9.15;5.03;;;11.90;54.70;12.00;100918.00;;;;344304;28;84034;-87
2021/03/03 00:25:40;;;;;;;8.95;4.90;;;11.90;54.60;12.00;100914.00;;;;341272;28;92530;-87
2021/03/03 00:25:51;;;;;;;7.85;4.78;;;11.90;54.50;12.00;100909.00;;;;344449;28;84652;-87
2021/03/03 00:26:02;;;;;;;7.63;5.15;;;11.90;54.50;12.00;100909.00;;;;341180;28;90972;-88
2021/03/03 00:26:15;;;;;;;8.98;5.80;;;11.90;54.60;12.10;100915.00;;;;344207;28;83420;-88
2021/03/03 00:26:29;;;;;;;9.90;5.93;;;11.90;54.50;12.20;100910.00;;;;342360;28;90655;-87
2021/03/03 00:26:40;;;;;;;8.82;5.38;;;12.00;54.50;12.20;100910.00;;;;344525;28;82474;-87
2021/03/03 00:26:52;;;;;;;7.97;4.72;;;12.00;54.60;12.20;100905.00;;;;343175;28;91151;-87
2021/03/03 00:27:03;;;;;;;8.48;5.03;;;12.00;54.60;12.20;100902.00;;;;343025;28;84710;-88
2021/03/03 00:27:14;;;;;;;9.38;5.57;;;12.00;54.50;12.10;100908.00;;;;341338;28;90022;-87
2021/03/03 00:27:26;;;;;;;8.55;5.90;;;12.00;54.40;12.10;100909.00;;;;343053;28;83584;-87
2021/03/03 00:27:57;;;;;;;8.05;5.72;;;12.00;54.40;12.10;100904.00;;;;343898;28;91071;-87
2021/03/03 00:28:08;;;;;;;8.13;5.20;;;12.00;54.30;12.10;100909.00;;;;341738;28;83516;-87
2021/03/03 00:28:22;;;;;;;8.63;5.55;;;12.00;54.30;12.00;100909.00;;;;342268;28;92594;-88
2021/03/03 00:28:33;;;;;;;9.40;6.07;;;12.00;54.40;12.00;100911.00;;;;345812;28;83427;-87
2021/03/03 00:28:46;;;;;;;10.27;5.63;;;12.00;54.40;12.10;100908.00;;;;345271;28;91064;-88
2021/03/03 00:28:57;;;;;;;11.02;5.82;;;12.00;54.30;12.00;100914.00;;;;342983;28;84531;-87
2021/03/03 00:29:09;;;;;;;10.25;5.82;;;12.00;54.20;12.10;100915.00;;;;339979;28;93239;-89
2021/03/03 00:29:20;;;;;;;11.38;5.93;;;12.00;54.20;12.10;100907.00;;;;342141;28;84734;-88
2021/03/03 00:29:31;;;;;;;10.85;5.55;;;12.00;54.10;12.10;100908.00;;;;341272;28;92734;-88
2021/03/03 00:29:43;;;;;;;9.15;5.35;;;12.00;54.20;12.10;100908.00;;;;344404;28;84383;-87
2021/03/03 00:29:54;;;;;;;8.80;5.50;;;12.00;54.30;12.10;100907.00;;;;342593;28;90866;-87
2021/03/03 00:30:06;;;;;;;11.20;5.35;;;12.00;54.30;12.20;100900.00;;;;341710;28;84649;-87
2021/03/03 00:30:18;;;;;;;12.82;5.63;;;12.00;54.30;12.20;100914.00;;;;343831;28;92113;-88
2021/03/03 00:30:30;;;;;;;12.93;5.80;;;12.00;54.40;12.20;100906.00;;;;340267;28;85204;-87
2021/03/03 00:30:41;;;;;;;9.70;5.18;;;12.00;54.40;12.10;100908.00;;;;341444;28;89463;-87
2021/03/03 00:30:53;;;;;;;9.13;5.05;;;12.00;54.30;12.10;100907.00;;;;341622;28;84905;-87
2021/03/03 00:31:05;;;;;;;9.70;4.97;;;12.00;55.00;12.10;100913.00;;;;343761;28;91123;-87
2021/03/03 00:31:17;;;;;;;9.02;5.03;;;12.00;54.40;12.20;100911.00;;;;342688;28;83982;-88
2021/03/03 00:31:28;;;;;;;8.30;4.82;;;12.10;54.40;12.30;100907.00;;;;342518;28;92648;-87
2021/03/03 00:31:40;;;;;;;9.45;5.07;;;12.10;54.40;12.30;100907.00;;;;341618;28;83500;-87
2021/03/03 00:31:51;;;;;;;11.82;5.60;;;12.10;54.40;12.30;100915.00;;;;342588;28;91076;-87
2021/03/03 00:32:03;;;;;;;11.93;5.50;;;12.10;54.40;12.30;100908.00;;;;343088;28;85055;-88
2021/03/03 00:32:15;;;;;;;11.90;5.45;;;12.10;55.00;12.30;100911.00;;;;343865;28;92283;-88
2021/03/03 00:32:26;;;;;;;10.73;5.38;;;12.10;54.40;12.40;100910.00;;;;344792;28;83510;-87
2021/03/03 00:32:38;;;;;;;10.88;5.18;;;12.10;54.30;12.30;100908.00;;;;342651;28;91649;-87
2021/03/03 00:32:49;;;;;;;7.97;4.60;;;12.10;54.30;12.40;100912.00;;;;344485;28;84460;-87
2021/03/03 00:33:01;;;;;;;7.57;4.80;;;12.20;54.40;12.30;100910.00;;;;344029;28;90791;-87
2021/03/03 00:33:13;;;;;;;8.48;4.85;;;12.20;54.50;12.40;100908.00;;;;341742;28;83567;-88
2021/03/03 00:33:24;;;;;;;9.32;4.97;;;12.20;54.60;12.30;100918.00;;;;342296;28;91750;-88
2021/03/03 00:33:35;;;;;;;9.57;5.00;;;12.20;54.50;12.20;100906.00;;;;344353;28;84674;-87
2021/03/03 00:33:47;;;;;;;9.00;4.85;;;12.20;54.50;12.20;100903.00;;;;345263;28;90892;-87
2021/03/03 00:33:58;;;;;;;8.38;4.93;;;12.10;54.60;12.30;100917.00;;;;341571;28;85004;-87
2021/03/03 00:34:10;;;;;;;7.47;5.07;;;12.10;54.50;12.20;100909.00;;;;342753;28;90578;-87
2021/03/03 00:34:21;;;;;;;10.75;5.78;;;12.10;54.70;12.10;100906.00;;;;344232;28;83524;-87
2021/03/03 00:34:32;;;;;;;9.82;5.57;;;12.10;54.80;12.00;100916.00;;;;344013;28;90710;-88
2021/03/03 00:34:44;;;;;;;9.45;5.18;;;12.10;54.90;12.10;100917.00;;;;344256;28;84261;-87
2021/03/03 00:34:55;;;;;;;9.23;5.32;;;12.10;54.70;11.90;100914.00;;;;344001;28;91947;-87
2021/03/03 00:35:08;;;;;;;9.68;5.22;;;12.10;54.90;11.90;100915.00;;;;343068;28;84722;-87
2021/03/03 00:35:19;;;;;;;11.50;5.30;;;12.00;55.00;11.80;100914.00;;;;343075;28;92755;-87
2021/03/03 00:35:31;;;;;;;12.07;5.20;;;12.00;54.90;11.80;100916.00;;;;342708;28;83866;-87
2021/03/03 00:35:42;;;;;;;9.90;5.00;;;12.00;54.80;11.90;100917.00;;;;341206;28;91752;-87
2021/03/03 00:35:54;;;;;;;8.13;5.03;;;12.00;54.70;11.90;100919.00;;;;342861;28;84763;-87
2021/03/03 00:36:05;;;;;;;5.90;4.20;;;12.00;54.60;12.00;100914.00;;;;341435;28;89185;-87
2021/03/03 00:36:17;;;;;;;6.43;4.38;;;12.00;54.50;12.00;100919.00;;;;342951;28;84656;-86
2021/03/03 00:36:28;;;;;;;6.75;4.40;;;12.00;54.50;12.00;100911.00;;;;339949;28;91404;-88
2021/03/03 00:36:40;;;;;;;7.38;4.68;;;12.00;54.50;12.10;100924.00;;;;341680;28;84499;-87
2021/03/03 00:36:51;;;;;;;7.80;4.75;;;12.00;54.50;12.20;100918.00;;;;339987;28;91741;-87
2021/03/03 00:37:02;;;;;;;9.20;4.88;;;12.00;54.60;12.30;100914.00;;;;342803;28;83318;-88
2021/03/03 00:37:14;;;;;;;10.15;5.03;;;12.00;54.70;12.20;100923.00;;;;341318;28;92581;-88
2021/03/03 00:37:26;;;;;;;8.27;4.80;;;12.00;54.70;12.20;100909.00;;;;341817;28;83992;-87
2021/03/03 00:37:37;;;;;;;7.97;4.78;;;12.00;54.60;12.20;100916.00;;;;341199;28;91074;-88
2021/03/03 00:37:48;;;;;;;8.25;4.72;;;12.00;54.50;12.10;100912.00;;;;343054;28;84577;-87
2021/03/03 00:38:00;;;;;;;8.55;4.88;;;12.00;54.60;12.10;100921.00;;;;342726;28;91829;-87
2021/03/03 00:38:11;;;;;;;7.65;5.20;;;12.00;54.70;12.00;100921.00;;;;343071;28;84760;-87
2021/03/03 00:38:23;;;;;;;8.65;5.38;;;12.00;54.70;12.10;100920.00;;;;344476;28;91217;-87
2021/03/03 00:38:34;;;;;;;12.50;5.32;;;12.00;54.70;12.10;100922.00;;;;342918;28;84563;-87
2021/03/03 00:38:45;;;;;;;11.65;4.97;;;12.00;54.60;12.10;100916.00;;;;342586;28;91998;-87
2021/03/03 00:38:57;;;;;;;7.20;4.68;;;12.00;54.60;12.00;100921.00;;;;344117;28;83577;-87
2021/03/03 00:39:08;;;;;;;7.68;5.28;;;12.00;54.60;12.10;100918.00;;;;345375;28;92667;-87
2021/03/03 00:39:19;;;;;;;7.97;5.63;;;12.00;54.50;12.10;100918.00;;;;345356;28;83652;-87
2021/03/03 00:39:32;;;;;;;7.57;5.68;;;12.00;54.60;12.20;100925.00;;;;339978;28;92319;-88
2021/03/03 00:39:43;;;;;;;7.70;5.47;;;12.00;54.70;12.00;100919.00;;;;342988;28;84912;-87
2021/03/03 00:39:55;;;;;;;8.63;5.47;;;12.00;54.90;11.90;100920.00;;;;339950;28;92735;-87
2021/03/03 00:40:07;;;;;;;9.25;5.63;;;12.00;55.10;11.80;100918.00;;;;343059;28;84856;-87
2021/03/03 00:40:18;;;;;;;7.95;5.30;;;12.00;55.10;11.90;100917.00;;;;341233;28;92553;-88
2021/03/03 00:40:30;;;;;;;7.10;4.95;;;11.90;55.00;12.00;100920.00;;;;343076;28;84463;-87
2021/03/03 00:40:41;;;;;;;9.10;4.85;;;11.90;54.80;12.00;100913.00;;;;341306;28;91880;-87
2021/03/03 00:40:54;;;;;;;11.05;5.15;;;11.90;55.00;12.10;100919.00;;;;344155;28;83740;-87
2021/03/03 00:41:05;;;;;;;10.95;5.55;;;11.90;54.90;11.90;100916.00;;;;341255;28;93248;-87
2021/03/03 00:41:17;;;;;;;10.48;5.63;;;11.90;55.00;11.90;100917.00;;;;344479;28;83295;-88
2021/03/03 00:41:28;;;;;;;8.45;5.13;;;11.90;55.10;12.00;100911.00;;;;341892;28;91805;-88
2021/03/03 00:41:40;;;;;;;7.72;4.70;;;11.90;55.00;12.10;100904.00;;;;345675;28;84595;-88
2021/03/03 00:41:51;;;;;;;8.65;4.60;;;11.90;54.80;12.20;100913.00;;;;341394;28;91656;-87
2021/03/03 00:42:03;;;;;;;8.10;4.60;;;11.90;55.00;12.30;100918.00;;;;341709;28;84905;-87
2021/03/03 00:42:14;;;;;;;7.40;4.53;;;11.90;55.30;12.10;100921.00;;;;342779;28;88506;-87
2021/03/03 00:42:26;;;;;;;7.75;4.78;;;11.90;55.30;12.00;100918.00;;;;341452;28;85111;-87
2021/03/03 00:42:37;;;;;;;7.40;4.63;;;11.90;55.40;12.00;100920.00;;;;341299;28;92373;-87
2021/03/03 00:42:49;;;;;;;7.47;4.55;;;11.90;55.10;12.00;100917.00;;;;340329;28;84587;-87
2021/03/03 00:43:00;;;;;;;8.10;4.85;;;11.90;55.00;12.10;100918.00;;;;341149;28;90276;-87
2021/03/03 00:43:12;;;;;;;7.50;4.82;;;11.90;54.90;12.10;100923.00;;;;341767;28;83975;-88
2021/03/03 00:43:23;;;;;;;8.40;5.00;;;11.90;54.80;11.90;100911.00;;;;342691;28;90602;-87
2021/03/03 00:43:34;;;;;;;9.20;4.88;;;11.90;54.90;11.90;100909.00;;;;343038;28;84414;-87
2021/03/03 00:43:46;;;;;;;8.98;5.07;;;11.90;55.00;11.90;100915.00;;;;341276;28;91722;-87
2021/03/03 00:43:58;;;;;;;8.48;5.25;;;11.90;55.00;11.80;100906.00;;;;340176;28;84048;-88
2021/03/03 00:44:09;;;;;;;8.05;5.30;;;11.90;55.20;11.90;100915.00;;;;343901;28;91801;-87
2021/03/03 00:44:21;;;;;;;7.65;4.95;;;11.90;55.10;12.00;100915.00;;;;343948;28;84915;-87
2021/03/03 00:44:32;;;;;;;6.43;4.70;;;11.90;55.10;12.00;100911.00;;;;342620;28;90501;-88
2021/03/03 00:44:44;;;;;;;6.32;4.63;;;11.90;55.20;11.90;100916.00;;;;343120;28;84720;-87
2021/03/03 00:44:55;;;;;;;7.13;4.95;;;11.90;55.40;11.90;100916.00;;;;342326;28;94084;-88
2021/03/03 00:45:08;;;;;;;6.88;4.80;;;11.80;55.30;11.80;100920.00;;;;342819;28;83744;-87
2021/03/03 00:45:19;;;;;;;5.82;4.35;;;11.80;55.20;11.90;100910.00;;;;342830;28;91843;-88
2021/03/03 00:45:30;;;;;;;5.53;4.60;;;11.80;55.00;11.90;100911.00;;;;342996;28;83786;-87
2021/03/03 00:45:42;;;;;;;7.07;4.82;;;11.80;55.10;11.80;100919.00;;;;344056;28;91644;-87
2021/03/03 00:45:53;;;;;;;7.80;5.03;;;11.80;55.20;11.70;100918.00;;;;344389;28;85470;-87
2021/03/03 00:46:05;;;;;;;8.60;5.00;;;11.80;55.50;11.80;100914.00;;;;344070;28;91593;-87
2021/03/03 00:46:16;;;;;;;7.80;5.25;;;11.80;55.50;11.70;100919.00;;;;341711;28;84653;-87
2021/03/03 00:46:28;;;;;;;6.95;4.90;;;11.80;55.90;11.60;100911.00;;;;345323;28;92544;-87
2021/03/03 00:46:40;;;;;;;6.63;4.68;;;11.70;56.00;11.60;100916.00;;;;343080;28;84319;-88
2021/03/03 00:46:51;;;;;;;7.93;4.63;;;11.70;56.00;11.60;100915.00;;;;343948;28;92728;-87
2021/03/03 00:47:03;;;;;;;7.85;4.45;;;11.70;55.90;11.60;100921.00;;;;343015;28;83592;-87
2021/03/03 00:47:15;;;;;;;6.95;4.38;;;11.70;56.00;11.60;100919.00;;;;344144;28;90896;-87
2021/03/03 00:47:26;;;;;;;8.35;4.57;;;11.60;56.20;11.60;100913.00;;;;343824;28;83678;-87
2021/03/03 00:47:38;;;;;;;11.65;4.90;;;11.60;55.90;11.70;100916.00;;;;346477;28;91529;-87
2021/03/03 00:47:49;;;;;;;12.48;4.68;;;11.60;55.70;11.80;100907.00;;;;344969;28;84744;-87
2021/03/03 00:48:01;;;;;;;12.02;4.85;;;11.60;55.60;11.90;100918.00;;;;344036;28;91848;-87
2021/03/03 00:48:12;;;;;;;7.78;4.68;;;11.60;55.40;11.90;100923.00;;;;344523;28;83293;-88
2021/03/03 00:48:24;;;;;;;6.65;4.68;;;11.70;55.50;11.90;100917.00;;;;344326;28;92218;-87
2021/03/03 00:48:35;;;;;;;7.22;4.57;;;11.60;55.30;11.90;100907.00;;;;344277;28;84565;-89
2021/03/03 00:48:49;;;;;;;7.97;4.43;;;11.70;55.40;11.80;100917.00;;;;342477;28;92931;-87
2021/03/03 00:49:00;;;;;;;7.68;4.30;;;11.60;55.60;11.70;100910.00;;;;342970;28;84521;-87
2021/03/03 00:49:11;;;;;;;6.45;3.97;;;11.60;55.70;11.70;100913.00;;;;341148;28;90890;-86
2021/03/03 00:49:23;;;;;;;6.92;4.16;;;11.70;55.90;11.60;100920.00;;;;340315;28;85347;-88
2021/03/03 00:49:34;;;;;;;7.07;4.50;;;11.60;56.00;11.60;100915.00;;;;341302;28;92034;-88
2021/03/03 00:49:45;;;;;;;7.93;5.05;;;11.60;56.10;11.70;100913.00;;;;342894;28;84171;-87
2021/03/03 00:49:57;;;;;;;8.45;5.15;;;11.60;55.80;11.70;100913.00;;;;341403;28;91061;-87
2021/03/03 00:50:09;;;;;;;10.55;5.25;;;11.60;55.80;11.70;100915.00;;;;343099;28;83450;-87
2021/03/03 00:50:20;;;;;;;9.52;5.10;;;11.60;55.80;11.60;100912.00;;;;343140;28;89880;-87
2021/03/03 00:50:32;;;;;;;8.70;5.05;;;11.60;55.60;11.60;100917.00;;;;342890;28;84955;-87
2021/03/03 00:50:43;;;;;;;7.63;4.90;;;11.60;55.80;11.70;100919.00;;;;343802;28;91823;-86
2021/03/03 00:50:55;;;;;;;7.85;5.07;;;11.60;55.80;11.70;100905.00;;;;340212;28;83473;-87
2021/03/03 00:51:09;;;;;;;6.32;4.45;;;11.60;55.70;11.70;100916.00;;;;341297;28;91724;-87
2021/03/03 00:51:22;;;;;;;7.55;4.32;;;11.60;55.70;11.70;100913.00;;;;340582;28;83701;-87
2021/03/03 00:51:33;;;;;;;8.43;4.70;;;11.60;55.60;11.80;100920.00;;;;341296;28;90193;-88